createdAt,value
2023-03-21T00:00:40.527Z,44.05
2023-03-21T00:03:07.877Z,44.03
2023-03-21T00:05:34.388Z,43.98
2023-03-21T00:08:02.549Z,43.71
2023-03-21T00:10:39.844Z,43.73
2023-03-21T00:13:13.009Z,43.69
2023-03-21T00:18:42.289Z,44.06
2023-03-21T00:21:46.242Z,43.61
2023-03-21T00:24:02.331Z,43.34
2023-03-21T00:26:28.789Z,43.43
2023-03-21T00:28:55.348Z,43.68
2023-03-21T00:31:21.730Z,43.62
2023-03-21T00:33:48.588Z,43.44
2023-03-21T00:36:16.227Z,43.71
2023-03-21T00:38:43.514Z,43.78
2023-03-21T00:41:25.852Z,43.69
2023-03-21T00:43:58.056Z,43.43
2023-03-21T00:46:27.630Z,43.89
2023-03-21T00:48:56.502Z,43.92
2023-03-21T00:51:26.971Z,43.65
2023-03-21T00:53:55.661Z,43.92
2023-03-21T00:56:22.129Z,43.81
2023-03-21T00:58:48.729Z,43.91
2023-03-21T01:01:15.345Z,43.91
2023-03-21T01:03:50.799Z,43.50
2023-03-21T01:06:19.660Z,43.83
2023-03-21T01:08:52.562Z,43.62
2023-03-21T01:11:23.301Z,43.29
2023-03-21T01:13:56.191Z,43.34
2023-03-21T01:16:26.401Z,43.65
2023-03-21T01:18:52.975Z,43.40
2023-03-21T01:21:19.805Z,43.41
2023-03-21T01:23:47.323Z,43.66
2023-03-21T01:26:14.399Z,43.33
2023-03-21T01:28:42.499Z,43.85
2023-03-21T01:31:11.317Z,43.61
2023-03-21T01:33:37.691Z,43.72
2023-03-21T01:36:12.737Z,43.60
2023-03-21T01:38:39.547Z,43.64
2023-03-21T01:41:17.062Z,43.45
2023-03-21T01:43:45.854Z,43.46
2023-03-21T01:46:22.420Z,43.33
2023-03-21T01:48:54.671Z,43.41
2023-03-21T01:51:22.392Z,43.67
2023-03-21T01:53:49.548Z,43.44
2023-03-21T01:56:29.661Z,43.65
2023-03-21T01:59:03.839Z,43.49
2023-03-21T02:01:32.006Z,43.31
2023-03-21T02:04:03.580Z,43.50
2023-03-21T02:06:36.608Z,43.29
2023-03-21T02:09:08.689Z,43.44
2023-03-21T02:11:37.236Z,43.53
2023-03-21T02:14:07.025Z,43.43
2023-03-21T02:16:56.283Z,42.90
2023-03-21T02:20:06.996Z,43.43
2023-03-21T02:23:02.173Z,43.32
2023-03-21T02:25:57.911Z,43.36
2023-03-21T02:28:42.004Z,42.75
2023-03-21T02:31:26.615Z,43.17
2023-03-21T02:34:20.907Z,43.03
2023-03-21T02:37:15.228Z,43.03
2023-03-21T02:39:55.596Z,43.14
2023-03-21T02:42:43.340Z,43.04
2023-03-21T02:45:20.137Z,43.19
2023-03-21T02:47:52.655Z,43.22
2023-03-21T02:50:24.739Z,43.36
2023-03-21T02:52:53.583Z,43.26
2023-03-21T02:55:24.769Z,43.48
2023-03-21T02:57:53.836Z,43.09
2023-03-21T03:00:25.715Z,43.43
2023-03-21T03:03:06.345Z,43.07
2023-03-21T03:05:41.584Z,43.05
2023-03-21T03:08:38.485Z,43.26
2023-03-21T03:11:32.868Z,43.05
2023-03-21T03:14:32.215Z,43.30
2023-03-21T03:17:07.133Z,42.79
2023-03-21T03:19:49.552Z,42.94
2023-03-21T03:22:26.541Z,43.21
2023-03-21T03:25:18.560Z,43.26
2023-03-21T03:27:54.030Z,43.05
2023-03-21T03:30:23.711Z,43.30
2023-03-21T03:32:57.672Z,43.76
2023-03-21T03:35:26.287Z,43.33
2023-03-21T03:37:57.761Z,43.36
2023-03-21T03:40:34.428Z,43.37
2023-03-21T03:43:08.340Z,43.28
2023-03-21T03:45:42.798Z,43.11
2023-03-21T03:48:15.854Z,43.12
2023-03-21T03:50:47.645Z,43.50
2023-03-21T03:53:40.668Z,43.47
2023-03-21T03:56:09.706Z,43.61
2023-03-21T03:58:45.220Z,43.35
2023-03-21T04:01:13.890Z,43.69
2023-03-21T04:03:49.775Z,43.78
2023-03-21T04:06:18.691Z,43.47
2023-03-21T04:08:45.376Z,43.57
2023-03-21T04:11:15.383Z,43.89
2023-03-21T04:13:42.617Z,43.71
2023-03-21T04:16:11.536Z,43.76
2023-03-21T04:18:39.167Z,43.95
2023-03-21T04:21:13.498Z,44.53
2023-03-21T04:23:41.246Z,44.02
2023-03-21T04:26:08.516Z,44.18
2023-03-21T04:28:36.944Z,44.29
2023-03-21T04:31:13.505Z,44.28
2023-03-21T04:33:50.167Z,44.34
2023-03-21T04:36:27.890Z,44.06
2023-03-21T04:38:57.369Z,44.18
2023-03-21T04:41:24.232Z,44.40
2023-03-21T04:43:52.432Z,44.30
2023-03-21T04:46:18.918Z,44.00
2023-03-21T04:48:45.396Z,44.23
2023-03-21T04:51:11.947Z,44.55
2023-03-21T04:53:39.518Z,44.13
2023-03-21T04:56:06.668Z,44.01
2023-03-21T04:58:33.195Z,44.49
2023-03-21T05:00:59.773Z,44.48
2023-03-21T05:03:28.432Z,44.12
2023-03-21T05:05:55.096Z,44.53
2023-03-21T05:08:21.610Z,44.18
2023-03-21T05:10:47.973Z,44.04
2023-03-21T05:13:14.304Z,44.20
2023-03-21T05:15:40.721Z,44.14
2023-03-21T05:18:12.941Z,44.16
2023-03-21T05:20:43.703Z,44.41
2023-03-21T05:23:11.862Z,44.22
2023-03-21T05:25:40.051Z,44.25
2023-03-21T05:28:07.614Z,44.35
2023-03-21T05:30:34.333Z,44.83
2023-03-21T05:33:00.876Z,44.67
2023-03-21T05:35:27.649Z,44.60
2023-03-21T05:37:54.211Z,44.74
2023-03-21T05:40:20.924Z,44.54
2023-03-21T05:42:47.977Z,44.42
2023-03-21T05:45:15.422Z,44.71
2023-03-21T05:47:41.859Z,44.60
2023-03-21T05:50:09.714Z,44.75
2023-03-21T05:52:36.068Z,44.68
2023-03-21T05:55:03.554Z,44.93
2023-03-21T05:57:29.990Z,44.63
2023-03-21T05:59:56.360Z,44.68
2023-03-21T06:02:23.059Z,44.39
2023-03-21T06:04:49.494Z,44.46
2023-03-21T06:07:15.990Z,44.68
2023-03-21T06:09:43.666Z,44.38
2023-03-21T06:12:11.240Z,44.35
2023-03-21T06:14:37.889Z,44.47
2023-03-21T06:17:04.540Z,44.38
2023-03-21T06:19:31.423Z,44.79
2023-03-21T06:21:59.278Z,44.83
2023-03-21T06:24:27.365Z,44.63
2023-03-21T06:26:53.706Z,44.35
2023-03-21T06:29:20.093Z,44.94
2023-03-21T06:31:46.812Z,44.73
2023-03-21T06:34:13.451Z,44.87
2023-03-21T06:36:39.816Z,44.66
2023-03-21T06:39:08.422Z,45.13
2023-03-21T06:41:34.885Z,44.81
2023-03-21T06:44:01.661Z,44.78
2023-03-21T06:46:28.163Z,44.96
2023-03-21T06:48:54.781Z,45.10
2023-03-21T06:51:21.432Z,45.41
2023-03-21T06:53:47.951Z,45.27
2023-03-21T06:56:14.720Z,45.60
2023-03-21T06:58:41.561Z,45.47
2023-03-21T07:01:08.372Z,45.91
2023-03-21T07:03:34.992Z,46.04
2023-03-21T07:06:13.584Z,46.69
2023-03-21T07:08:41.157Z,45.77
2023-03-21T07:11:08.543Z,46.22
2023-03-21T07:13:35.147Z,45.89
2023-03-21T07:16:01.961Z,46.31
2023-03-21T07:18:28.676Z,46.35
2023-03-21T07:20:55.379Z,46.54
2023-03-21T07:23:25.572Z,46.80
2023-03-21T07:25:53.458Z,46.50
2023-03-21T07:28:20.847Z,46.98
2023-03-21T07:30:56.225Z,47.53
2023-03-21T07:33:23.567Z,46.77
2023-03-21T07:35:51.528Z,46.73
2023-03-21T07:38:19.114Z,47.03
2023-03-21T07:40:47.223Z,47.02
2023-03-21T07:43:14.755Z,46.91
2023-03-21T07:45:42.781Z,46.99
2023-03-21T07:48:10.385Z,47.02
2023-03-21T07:50:36.809Z,47.12
2023-03-21T07:53:03.324Z,47.06
2023-03-21T07:55:30.032Z,47.31
2023-03-21T07:57:59.521Z,47.06
2023-03-21T08:00:25.945Z,47.17
2023-03-21T08:02:58.414Z,47.64
2023-03-21T08:05:28.888Z,47.78
2023-03-21T08:07:55.737Z,47.15
2023-03-21T08:10:22.065Z,47.29
2023-03-21T08:12:48.635Z,46.93
2023-03-21T08:15:15.791Z,47.46
2023-03-21T08:17:45.467Z,47.59
2023-03-21T08:20:15.692Z,47.61
2023-03-21T08:22:43.291Z,47.29
2023-03-21T08:25:14.008Z,47.87
2023-03-21T08:27:42.506Z,47.80
2023-03-21T08:30:12.241Z,47.61
2023-03-21T08:32:39.474Z,47.92
2023-03-21T08:35:10.384Z,48.04
2023-03-21T08:37:37.802Z,48.03
2023-03-21T08:40:11.562Z,48.52
2023-03-21T08:42:39.104Z,47.93
2023-03-21T08:45:06.907Z,47.52
2023-03-21T08:47:33.803Z,47.49
2023-03-21T08:50:00.356Z,47.60
2023-03-21T08:52:27.903Z,47.83
2023-03-21T08:54:54.908Z,48.06
2023-03-21T08:57:21.614Z,48.17
2023-03-21T08:59:48.313Z,48.47
2023-03-21T09:02:16.812Z,48.43
2023-03-21T09:04:43.885Z,49.13
2023-03-21T09:07:12.927Z,47.88
2023-03-21T09:09:39.560Z,48.21
2023-03-21T09:12:06.256Z,47.98
2023-03-21T09:14:33.290Z,48.54
2023-03-21T09:16:59.875Z,48.60
2023-03-21T09:19:27.773Z,48.38
2023-03-21T09:21:55.625Z,48.40
2023-03-21T09:24:22.956Z,48.42
2023-03-21T09:26:51.672Z,48.42
2023-03-21T09:29:23.265Z,48.77
2023-03-21T09:31:49.904Z,48.52
2023-03-21T09:34:16.306Z,48.74
2023-03-21T09:36:44.290Z,48.59
2023-03-21T09:39:11.961Z,48.34
2023-03-21T09:41:47.779Z,49.24
2023-03-21T09:44:41.722Z,48.76
2023-03-21T09:47:20.645Z,48.83
2023-03-21T09:49:51.880Z,48.43
2023-03-21T09:52:44.860Z,48.80
2023-03-21T09:55:23.114Z,48.65
2023-03-21T09:58:13.828Z,48.17
2023-03-21T10:00:47.455Z,48.19
2023-03-21T10:03:24.640Z,48.67
2023-03-21T10:06:01.234Z,48.39
2023-03-21T10:08:32.840Z,48.77
2023-03-21T10:11:05.367Z,48.94
2023-03-21T10:13:41.440Z,48.90
2023-03-21T10:16:16.128Z,49.14
2023-03-21T10:18:44.141Z,49.03
2023-03-21T10:21:47.424Z,49.23
2023-03-21T10:24:14.719Z,48.80
2023-03-21T10:26:43.279Z,48.34
2023-03-21T10:29:10.886Z,49.10
2023-03-21T10:31:38.093Z,48.45
2023-03-21T10:34:15.696Z,48.88
2023-03-21T10:36:42.487Z,48.71
2023-03-21T10:39:18.116Z,49.43
2023-03-21T10:41:45.038Z,48.52
2023-03-21T10:44:14.866Z,49.16
2023-03-21T10:46:56.495Z,49.96
2023-03-21T10:49:23.717Z,48.99
2023-03-21T10:51:53.737Z,49.30
2023-03-21T10:54:22.261Z,49.05
2023-03-21T10:56:57.040Z,49.65
2023-03-21T10:59:25.193Z,49.32
2023-03-21T11:01:55.696Z,49.31
2023-03-21T11:04:26.888Z,49.85
2023-03-21T11:06:59.587Z,49.25
2023-03-21T11:09:42.979Z,49.44
2023-03-21T11:12:16.097Z,49.31
2023-03-21T11:14:50.921Z,49.77
2023-03-21T11:17:17.460Z,49.14
2023-03-21T11:19:49.853Z,49.18
2023-03-21T11:22:18.605Z,49.13
2023-03-21T11:24:51.823Z,49.25
2023-03-21T11:27:18.831Z,49.07
2023-03-21T11:29:49.442Z,49.36
2023-03-21T11:32:37.172Z,49.08
2023-03-21T11:35:13.977Z,48.63
2023-03-21T11:37:47.672Z,49.43
2023-03-21T11:40:30.625Z,49.08
2023-03-21T11:43:01.688Z,49.28
2023-03-21T11:45:35.866Z,48.89
2023-03-21T11:48:11.594Z,48.79
2023-03-21T11:50:42.942Z,49.04
2023-03-21T11:53:28.338Z,48.98
2023-03-21T11:56:16.538Z,49.15
2023-03-21T11:59:04.305Z,48.94
2023-03-21T12:01:36.400Z,49.04
2023-03-21T12:04:24.473Z,48.79
2023-03-21T12:07:15.750Z,48.70
2023-03-21T12:10:04.469Z,48.79
2023-03-21T12:12:57.962Z,49.17
2023-03-21T12:15:43.772Z,48.71
2023-03-21T12:18:35.405Z,49.31
2023-03-21T12:21:20.886Z,49.69
2023-03-21T12:24:06.878Z,49.22
2023-03-21T12:26:45.441Z,48.97
2023-03-21T12:29:17.977Z,48.94
2023-03-21T12:31:57.240Z,48.71
2023-03-21T12:34:30.073Z,48.10
2023-03-21T12:37:33.482Z,47.94
2023-03-21T12:40:17.594Z,48.43
2023-03-21T12:42:50.325Z,48.18
2023-03-21T12:45:37.341Z,48.11
2023-03-21T12:48:36.304Z,48.05
2023-03-21T12:51:05.916Z,47.93
2023-03-21T12:53:49.015Z,47.53
2023-03-21T12:56:23.751Z,47.17
2023-03-21T12:58:57.907Z,46.98
2023-03-21T13:01:25.416Z,46.94
2023-03-21T13:04:07.056Z,46.98
2023-03-21T13:06:35.266Z,47.30
2023-03-21T13:09:36.674Z,46.57
2023-03-21T13:12:28.894Z,46.59
2023-03-21T13:15:12.522Z,46.25
2023-03-21T13:17:50.298Z,45.79
2023-03-21T13:20:29.243Z,45.50
2023-03-21T13:22:55.948Z,46.22
2023-03-21T13:25:25.218Z,45.95
2023-03-21T13:28:00.915Z,45.33
2023-03-21T13:30:30.295Z,45.52
2023-03-21T13:33:11.708Z,45.39
2023-03-21T13:35:41.568Z,45.33
2023-03-21T13:38:19.608Z,45.76
2023-03-21T13:40:51.059Z,45.88
2023-03-21T13:43:34.678Z,44.93
2023-03-21T13:46:13.336Z,44.78
2023-03-21T13:48:59.397Z,44.72
2023-03-21T13:51:29.009Z,45.11
2023-03-21T13:54:08.984Z,44.81
2023-03-21T13:56:44.424Z,44.63
2023-03-21T13:59:32.060Z,44.70
2023-03-21T14:02:26.438Z,44.54
2023-03-21T14:05:07.169Z,44.38
2023-03-21T14:07:42.384Z,44.04
2023-03-21T14:10:20.234Z,44.24
2023-03-21T14:12:48.529Z,44.62
2023-03-21T14:15:18.740Z,44.41
2023-03-21T14:17:55.402Z,43.91
2023-03-21T14:20:26.474Z,44.21
2023-03-21T14:22:54.871Z,43.92
2023-03-21T14:25:27.215Z,44.05
2023-03-21T14:27:59.545Z,44.12
2023-03-21T14:30:39.513Z,43.77
2023-03-21T14:33:22.358Z,43.83
2023-03-21T14:35:49.769Z,44.09
2023-03-21T14:38:25.615Z,43.51
2023-03-21T14:40:55.079Z,43.54
2023-03-21T14:43:23.347Z,43.75
2023-03-21T14:45:55.866Z,43.40
2023-03-21T14:48:30.581Z,43.53
2023-03-21T14:51:01.870Z,43.62
2023-03-21T14:53:31.672Z,43.39
2023-03-21T14:56:02.769Z,43.13
2023-03-21T14:58:31.239Z,43.25
2023-03-21T15:01:02.377Z,43.23
2023-03-21T15:03:29.254Z,43.06
2023-03-21T15:05:56.769Z,43.31
2023-03-21T15:08:28.745Z,42.75
2023-03-21T15:11:08.435Z,42.76
2023-03-21T15:13:49.983Z,42.96
2023-03-21T15:16:17.282Z,43.46
2023-03-21T15:18:45.410Z,43.28
2023-03-21T15:21:23.286Z,43.13
2023-03-21T15:23:56.165Z,43.11
2023-03-21T15:26:25.172Z,43.31
2023-03-21T15:28:58.306Z,42.77
2023-03-21T15:31:30.984Z,42.69
2023-03-21T15:33:57.795Z,43.11
2023-03-21T15:36:36.862Z,42.78
2023-03-21T15:39:08.958Z,42.89
2023-03-21T15:41:35.604Z,43.14
2023-03-21T15:44:02.110Z,42.88
2023-03-21T15:46:49.147Z,43.12
2023-03-21T15:49:16.181Z,42.91
2023-03-21T15:51:47.282Z,42.91
2023-03-21T15:54:17.404Z,43.15
2023-03-21T15:56:45.947Z,42.80
2023-03-21T15:59:14.101Z,43.18
2023-03-21T16:01:41.020Z,42.89
2023-03-21T16:04:13.577Z,43.21
2023-03-21T16:07:02.361Z,43.28
2023-03-21T16:09:39.155Z,43.10
2023-03-21T16:12:11.006Z,43.01
2023-03-21T16:14:37.843Z,43.28
2023-03-21T16:17:29.282Z,42.54
2023-03-21T16:19:55.801Z,42.99
2023-03-21T16:22:22.479Z,42.76
2023-03-21T16:24:49.114Z,42.71
2023-03-21T16:27:18.743Z,42.97
2023-03-21T16:29:45.229Z,42.83
2023-03-21T16:32:17.054Z,42.63
2023-03-21T16:34:44.761Z,42.99
2023-03-21T16:37:12.241Z,42.94
2023-03-21T16:39:39.023Z,42.90
2023-03-21T16:42:08.254Z,42.71
2023-03-21T16:44:35.680Z,42.79
2023-03-21T16:47:03.503Z,42.96
2023-03-21T16:49:30.456Z,43.04
2023-03-21T16:51:57.703Z,43.17
2023-03-21T16:54:24.293Z,42.86
2023-03-21T16:56:53.511Z,43.02
2023-03-21T16:59:20.203Z,43.28
2023-03-21T17:01:48.361Z,43.05
2023-03-21T17:04:16.833Z,42.77
2023-03-21T17:06:52.517Z,42.81
2023-03-21T17:09:22.732Z,42.71
2023-03-21T17:11:49.954Z,42.63
2023-03-21T17:14:21.932Z,42.80
2023-03-21T17:16:49.306Z,42.91
2023-03-21T17:19:23.900Z,42.62
2023-03-21T17:21:50.256Z,42.93
2023-03-21T17:24:16.779Z,42.69
2023-03-21T17:26:43.437Z,43.15
2023-03-21T17:29:13.168Z,43.06
2023-03-21T17:31:39.779Z,43.22
2023-03-21T17:34:06.311Z,43.22
2023-03-21T17:36:36.370Z,43.21
2023-03-21T17:39:06.048Z,43.08
2023-03-21T17:41:32.880Z,43.51
2023-03-21T17:43:59.274Z,43.16
2023-03-21T17:46:27.470Z,43.14
2023-03-21T17:48:55.275Z,43.33
2023-03-21T17:51:23.706Z,43.22
2023-03-21T17:53:51.198Z,43.35
2023-03-21T17:56:30.937Z,43.61
2023-03-21T17:59:00.193Z,43.27
2023-03-21T18:01:27.102Z,43.47
2023-03-21T18:03:56.491Z,43.23
2023-03-21T18:06:26.105Z,43.40
2023-03-21T18:08:53.694Z,43.06
2023-03-21T18:11:22.135Z,42.98
2023-03-21T18:13:48.791Z,43.30
2023-03-21T18:16:18.766Z,43.20
2023-03-21T18:18:46.498Z,42.88
2023-03-21T18:21:19.637Z,43.11
2023-03-21T18:23:47.367Z,43.34
2023-03-21T18:26:17.862Z,43.33
2023-03-21T18:28:45.458Z,43.31
2023-03-21T18:31:19.846Z,43.19
2023-03-21T18:33:48.323Z,43.35
2023-03-21T18:36:24.545Z,43.23
2023-03-21T18:38:51.833Z,43.43
2023-03-21T18:41:22.674Z,43.50
2023-03-21T18:44:13.577Z,43.51
2023-03-21T18:46:36.737Z,43.54
2023-03-21T18:49:33.954Z,43.50
2023-03-21T18:51:50.634Z,43.65
2023-03-21T18:54:17.184Z,43.30
2023-03-21T18:59:34.682Z,43.25
2023-03-21T19:02:02.263Z,43.38
2023-03-21T19:04:30.444Z,43.60
2023-03-21T19:06:58.383Z,43.41
2023-03-21T19:09:30.931Z,43.42
2023-03-21T19:11:58.417Z,43.33
2023-03-21T19:14:24.744Z,43.94
2023-03-21T19:19:38.581Z,44.00
2023-03-21T19:22:05.044Z,43.78
2023-03-21T19:24:31.430Z,43.64
2023-03-21T19:26:57.805Z,44.08
2023-03-21T19:29:25.202Z,43.73
2023-03-21T19:31:52.634Z,44.06
2023-03-21T19:34:20.617Z,43.83
2023-03-21T19:36:51.693Z,43.92
2023-03-21T19:39:22.574Z,43.92
2023-03-21T19:41:50.593Z,44.28
2023-03-21T19:44:17.709Z,44.14
2023-03-21T19:46:44.399Z,44.34
2023-03-21T19:49:11.212Z,44.08
2023-03-21T19:51:37.838Z,44.39
2023-03-21T19:54:06.321Z,44.59
2023-03-21T19:56:34.556Z,44.26
2023-03-21T19:59:03.171Z,44.53
2023-03-21T20:01:34.381Z,44.11
2023-03-21T20:04:00.847Z,44.48
2023-03-21T20:06:28.264Z,44.43
2023-03-21T20:09:41.388Z,44.60
2023-03-21T20:11:41.736Z,44.74
2023-03-21T20:14:09.747Z,44.38
2023-03-21T20:16:37.173Z,44.38
2023-03-21T20:19:06.215Z,44.62
2023-03-21T20:21:43.413Z,44.62
2023-03-21T20:24:14.650Z,44.74
2023-03-21T20:26:41.282Z,44.75
2023-03-21T20:29:54.939Z,44.62
2023-03-21T20:31:54.361Z,44.44
2023-03-21T20:34:21.351Z,44.44
2023-03-21T20:36:48.393Z,44.67
2023-03-21T20:39:15.553Z,44.93
2023-03-21T20:41:42.054Z,44.72
2023-03-21T20:46:56.673Z,44.63
2023-03-21T20:49:24.315Z,44.46
2023-03-21T20:52:46.248Z,44.61
2023-03-21T20:54:38.117Z,44.47
2023-03-21T20:57:05.280Z,44.16
2023-03-21T20:59:31.708Z,44.40
2023-03-21T21:01:58.673Z,44.23
2023-03-21T21:05:15.687Z,44.39
2023-03-21T21:07:21.326Z,43.94
2023-03-21T21:09:49.392Z,44.01
2023-03-21T21:12:18.912Z,43.97
2023-03-21T21:14:45.907Z,44.26
2023-03-21T21:17:57.974Z,44.23
2023-03-21T21:20:01.502Z,44.38
2023-03-21T21:22:28.471Z,44.00
2023-03-21T21:24:54.825Z,43.81
2023-03-21T21:27:21.183Z,44.16
2023-03-21T21:29:50.153Z,43.91
2023-03-21T21:32:18.299Z,43.88
2023-03-21T21:34:44.705Z,43.29
2023-03-21T21:37:11.364Z,43.78
2023-03-21T21:39:38.819Z,43.66
2023-03-21T21:42:06.006Z,43.33
2023-03-21T21:44:32.346Z,43.64
2023-03-21T21:46:59.124Z,43.51
2023-03-21T21:49:26.805Z,43.22
2023-03-21T21:51:53.430Z,43.21
2023-03-21T21:54:20.031Z,43.45
2023-03-21T21:56:53.977Z,43.68
2023-03-21T21:59:22.046Z,43.61
2023-03-21T22:01:51.035Z,43.75
2023-03-21T22:04:18.195Z,43.32
2023-03-21T22:06:44.894Z,43.75
2023-03-21T22:09:11.211Z,43.51
2023-03-21T22:11:37.794Z,43.20
2023-03-21T22:14:04.444Z,43.95
2023-03-21T22:16:30.888Z,43.66
2023-03-21T22:18:57.302Z,43.32
2023-03-21T22:21:24.033Z,43.90
2023-03-21T22:23:50.551Z,43.47
2023-03-21T22:26:17.270Z,43.59
2023-03-21T22:28:43.799Z,43.87
2023-03-21T22:31:18.526Z,43.58
2023-03-21T22:33:45.815Z,43.76
2023-03-21T22:36:12.731Z,43.84
2023-03-21T22:38:41.689Z,43.89
2023-03-21T22:41:08.118Z,43.70
2023-03-21T22:43:35.375Z,43.85
2023-03-21T22:46:06.016Z,43.87
2023-03-21T22:48:32.941Z,43.44
2023-03-21T22:51:00.618Z,43.86
2023-03-21T22:53:27.833Z,43.80
2023-03-21T22:55:54.987Z,43.73
2023-03-21T22:58:21.664Z,43.64
2023-03-21T23:00:48.581Z,43.84
2023-03-21T23:03:16.711Z,43.87
2023-03-21T23:05:44.584Z,43.62
2023-03-21T23:08:11.523Z,43.70
2023-03-21T23:10:39.777Z,43.78
2023-03-21T23:13:06.986Z,43.50
2023-03-21T23:15:33.671Z,43.86
2023-03-21T23:18:00.091Z,43.88
2023-03-21T23:20:26.449Z,44.10
2023-03-21T23:22:52.843Z,44.06
2023-03-21T23:25:20.752Z,43.65
2023-03-21T23:27:47.610Z,43.98
2023-03-21T23:30:14.076Z,43.78
2023-03-21T23:32:43.564Z,44.02
2023-03-21T23:35:10.449Z,43.75
2023-03-21T23:37:36.951Z,43.62
2023-03-21T23:40:06.183Z,43.58
2023-03-21T23:42:34.359Z,43.87
2023-03-21T23:45:01.133Z,43.78
2023-03-21T23:47:28.172Z,44.12
2023-03-21T23:49:54.947Z,44.31
2023-03-21T23:52:22.105Z,44.15
2023-03-21T23:54:49.075Z,44.23
2023-03-21T23:57:16.681Z,44.00
2023-03-21T23:59:42.976Z,43.92
